Time;durP1;ratioP1;P1;durP2;ratioP2;P2;SDS_P1;SDS_P2;PMS_P1;PMS_P2;Temp;Humidity;BMP_temperature;BMP_pressure;BME280_temperature;BME280_humidity;BME280_pressure;Samples;Min_cycle;Max_cycle;Signal;HPM_P1;HPM_P2
2022/05/09 00:03:50;;;;;;;22.33;6.68;;;;;;;8.26;93.74;102810.22;10542805;28;20499;-72
2022/05/09 00:08:50;;;;;;;12.38;5.13;;;;;;;8.22;91.73;102809.63;10543554;28;20123;-71
2022/05/09 00:13:51;;;;;;;8.32;4.80;;;;;;;8.15;92.90;102806.63;10542583;28;20035;-71
2022/05/09 00:18:51;;;;;;;15.90;5.53;;;;;;;8.10;94.70;102797.22;10542454;28;20043;-72
2022/05/09 00:23:51;;;;;;;16.27;6.15;;;;;;;8.08;94.57;102802.75;10542421;28;20032;-71
2022/05/09 00:28:52;;;;;;;5.82;4.35;;;;;;;8.04;93.15;102790.53;10541422;28;20388;-71
2022/05/09 00:33:52;;;;;;;8.82;4.28;;;;;;;8.00;92.51;102794.47;10541999;28;20039;-72
2022/05/09 00:38:53;;;;;;;16.55;6.93;;;;;;;7.96;93.52;102795.75;10541614;28;20102;-72
2022/05/09 00:43:54;;;;;;;14.00;4.82;;;;;;;7.92;91.75;102784.38;10523885;28;20063;-72
2022/05/09 00:49:13;;;;;;;23.48;6.50;;;;;;;7.92;90.90;102788.91;10541455;28;20046;-71
2022/05/09 00:54:14;;;;;;;14.90;4.70;;;;;;;7.87;91.12;102783.91;10523246;28;20036;-72
2022/05/09 00:59:15;;;;;;;15.68;4.72;;;;;;;7.84;91.08;102777.91;10522367;28;20472;-71
2022/05/09 01:04:21;;;;;;;11.25;4.65;;;;;;;7.75;93.05;102779.56;10522709;28;20365;-71
2022/05/09 01:09:22;;;;;;;7.50;3.35;;;;;;;7.69;94.20;102778.28;10522719;28;20039;-71
2022/05/09 01:14:24;;;;;;;10.10;4.88;;;;;;;7.72;94.06;102773.59;10540740;28;20498;-71
2022/05/09 01:19:36;;;;;;;10.95;6.22;;;;;;;7.69;93.74;102762.09;10540508;28;20428;-71
2022/05/09 01:24:37;;;;;;;14.77;4.75;;;;;;;7.62;93.24;102763.59;10539947;28;20130;-71
2022/05/09 01:29:57;;;;;;;7.90;4.72;;;;;;;7.56;93.39;102766.84;10520713;28;20051;-71
2022/05/09 01:35:08;;;;;;;10.23;3.92;;;;;;;7.55;93.65;102762.41;10521473;28;20437;-72
2022/05/09 01:40:10;;;;;;;17.10;4.80;;;;;;;7.49;93.79;102748.63;10521717;28;20046;-71
2022/05/09 01:45:11;;;;;;;17.35;4.93;;;;;;;7.44;93.95;102749.88;10521413;28;20051;-72
2022/05/09 01:50:12;;;;;;;13.05;4.25;;;;;;;7.41;94.87;102738.50;10521126;28;20043;-71
2022/05/09 01:55:12;;;;;;;6.28;4.35;;;;;;;7.41;96.00;102733.13;10539384;28;20032;-72
2022/05/09 02:00:14;;;;;;;9.85;5.03;;;;;;;7.38;96.37;102745.00;10538543;28;20051;-71
2022/05/09 02:05:14;;;;;;;12.70;4.75;;;;;;;7.40;94.68;102744.84;10539285;28;20040;-72
2022/05/09 02:10:14;;;;;;;8.27;3.97;;;;;;;7.34;95.43;102742.69;10520849;28;20032;-72
2022/05/09 02:15:15;;;;;;;9.93;4.50;;;;;;;7.23;96.50;102736.38;10538674;28;20505;-71
2022/05/09 02:20:15;;;;;;;10.20;4.75;;;;;;;7.22;95.51;102736.53;10538675;28;20430;-72
2022/05/09 02:25:29;;;;;;;18.05;5.03;;;;;;;7.13;97.03;102745.38;10538616;28;20116;-72
2022/05/09 02:30:29;;;;;;;11.25;3.60;;;;;;;7.15;95.32;102740.72;10538344;28;20032;-71
2022/05/09 02:35:30;;;;;;;12.30;4.43;;;;;;;7.14;93.92;102745.25;10537880;28;20028;-70
2022/05/09 02:40:33;;;;;;;11.48;4.95;;;;;;;7.10;93.81;102749.19;10540641;28;20069;-71
2022/05/09 02:45:33;;;;;;;8.43;5.93;;;;;;;7.01;94.29;102736.50;10545838;28;20052;-71
2022/05/09 02:50:33;;;;;;;8.55;5.78;;;;;;;6.96;95.08;102727.97;10528278;28;20116;-70
2022/05/09 02:55:34;;;;;;;11.63;4.55;;;;;;;6.89;95.82;102722.22;10545897;28;20028;-71
2022/05/09 03:00:35;;;;;;;19.88;6.22;;;;;;;6.88;95.06;102725.88;10527531;28;20494;-71
2022/05/09 03:05:35;;;;;;;8.40;6.38;;;;;;;6.85;95.21;102719.91;10528494;28;20035;-71
2022/05/09 03:10:36;;;;;;;13.52;5.90;;;;;;;6.81;96.34;102721.16;10527311;28;20042;-70
2022/05/09 03:15:38;;;;;;;14.18;6.35;;;;;;;6.74;96.22;102708.19;10544938;28;20074;-71
2022/05/09 03:20:39;;;;;;;22.13;5.43;;;;;;;6.71;96.49;102713.84;10524482;28;20032;-70
2022/05/09 03:25:40;;;;;;;10.75;5.95;;;;;;;6.70;95.89;102709.44;10527354;28;20067;-70
2022/05/09 03:30:40;;;;;;;16.50;5.38;;;;;;;6.67;96.77;102701.63;10525794;28;20162;-70
2022/05/09 03:35:42;;;;;;;6.93;4.47;;;;;;;6.68;95.15;102702.47;10544770;28;20111;-71
2022/05/09 03:40:42;;;;;;;18.33;6.32;;;;;;;6.64;95.36;102706.41;10546111;28;20020;-71
2022/05/09 03:45:44;;;;;;;15.05;7.32;;;;;;;6.62;94.68;102698.44;10526359;28;20117;-71
2022/05/09 03:50:44;;;;;;;7.43;6.65;;;;;;;6.58;94.56;102699.69;10543456;28;20044;-72
2022/05/09 03:55:44;;;;;;;17.27;7.10;;;;;;;6.58;94.89;102694.31;10543591;28;20463;-71
2022/05/09 04:00:45;;;;;;;13.05;7.80;;;;;;;6.53;95.51;102694.69;10543185;28;20028;-72
2022/05/09 04:05:46;;;;;;;27.70;7.93;;;;;;;6.57;94.70;102689.03;10526109;28;20448;-72
2022/05/09 04:10:46;;;;;;;14.35;7.03;;;;;;;6.56;95.19;102690.88;10542936;28;20028;-71
2022/05/09 04:21:08;;;;;;;11.57;5.78;;;;;;;6.63;95.95;102683.16;10541635;28;20393;-70
2022/05/09 04:26:10;;;;;;;18.02;7.75;;;;;;;6.64;96.45;102674.97;10542451;28;20044;-71
2022/05/09 04:31:10;;;;;;;9.32;6.78;;;;;;;6.73;95.44;102678.69;10542176;28;20028;-72
2022/05/09 04:36:10;;;;;;;16.67;7.82;;;;;;;6.82;95.41;102677.06;10542574;28;20031;-72
2022/05/09 04:41:13;;;;;;;12.93;6.97;;;;;;;6.89;94.94;102668.38;10523407;28;20320;-72
2022/05/09 04:46:13;;;;;;;16.38;7.25;;;;;;;6.93;96.26;102664.44;10543025;28;20048;-73
2022/05/09 04:51:15;;;;;;;29.10;7.75;;;;;;;7.04;97.55;102673.44;10540229;28;20036;-73
2022/05/09 04:56:17;;;;;;;10.73;8.27;;;;;;;7.10;98.60;102668.38;10539405;28;20047;-71
2022/05/09 05:01:17;;;;;;;13.07;7.38;;;;;;;7.23;100.00;102663.63;10522959;28;20032;-73
2022/05/09 05:06:18;;;;;;;12.82;7.32;;;;;;;7.84;100.00;102670.88;10540511;28;20027;-71
2022/05/09 05:11:18;;;;;;;13.77;6.50;;;;;;;8.71;100.00;102672.09;10540492;28;20024;-72
2022/05/09 05:16:19;;;;;;;15.70;7.80;;;;;;;9.58;99.01;102671.97;10477489;28;20113;-73
2022/05/09 05:21:19;;;;;;;15.85;6.05;;;;;;;10.01;95.92;102663.22;10537922;28;20039;-72
2022/05/09 05:26:19;;;;;;;9.95;5.18;;;;;;;10.56;93.59;102654.22;10539354;28;20031;-72
2022/05/09 05:31:20;;;;;;;9.65;5.80;;;;;;;11.25;91.48;102649.00;10539835;28;20032;-72
2022/05/09 05:36:20;;;;;;;19.00;6.35;;;;;;;11.78;87.49;102653.41;10522253;28;20064;-72
2022/05/09 05:41:22;;;;;;;8.88;5.50;;;;;;;12.08;84.59;102652.84;10539532;28;20110;-71
2022/05/09 05:46:23;;;;;;;10.77;5.90;;;;;;;12.61;83.15;102661.66;10539348;28;20055;-74
2022/05/09 05:51:23;;;;;;;5.95;4.15;;;;;;;13.19;85.31;102660.63;10539545;28;20459;-73
2022/05/09 05:56:25;;;;;;;9.48;4.18;;;;;;;13.93;82.56;102664.03;10539344;28;20036;-72
2022/05/09 06:01:25;;;;;;;10.00;4.78;;;;;;;14.27;79.88;102668.31;10520175;28;20105;-72
2022/05/09 06:06:25;;;;;;;12.35;4.53;;;;;;;14.51;74.46;102658.31;10538594;28;20047;-73
2022/05/09 06:11:26;;;;;;;14.73;5.13;;;;;;;14.86;70.92;102660.41;10538745;28;20028;-73
2022/05/09 06:16:26;;;;;;;15.55;5.90;;;;;;;15.09;66.02;102673.19;10543688;28;20383;-72
2022/05/09 06:21:27;;;;;;;11.80;5.18;;;;;;;15.86;69.38;102664.75;10546900;28;20024;-72
2022/05/09 06:26:28;;;;;;;11.55;4.70;;;;;;;16.18;60.08;102660.75;10547275;28;20431;-73
2022/05/09 06:31:29;;;;;;;13.10;4.38;;;;;;;16.29;59.83;102659.38;10547151;28;20028;-73
2022/05/09 06:36:33;;;;;;;17.35;4.10;;;;;;;16.61;59.70;102673.63;10546529;28;20024;-72
2022/05/09 06:41:34;;;;;;;22.50;3.95;;;;;;;17.00;57.83;102675.06;10528529;28;20111;-72
2022/05/09 06:46:34;;;;;;;10.55;4.97;;;;;;;17.52;57.95;102666.44;10526909;28;20052;-72
2022/05/09 06:51:35;;;;;;;5.82;4.10;;;;;;;18.06;57.14;102662.09;10527927;28;20020;-72
2022/05/09 06:56:35;;;;;;;9.45;4.35;;;;;;;18.28;52.90;102660.06;10543591;28;20039;-72
2022/05/09 07:01:37;;;;;;;7.65;3.92;;;;;;;18.61;51.17;102656.59;10527734;28;20078;-72
2022/05/09 07:06:38;;;;;;;11.32;4.53;;;;;;;19.13;54.61;102658.56;10544316;28;20032;-72
2022/05/09 07:11:38;;;;;;;13.15;4.43;;;;;;;19.29;52.71;102655.38;10545034;28;20027;-72
2022/05/09 07:16:39;;;;;;;15.27;5.68;;;;;;;20.03;54.36;102655.22;10545145;28;20360;-72
2022/05/09 07:21:39;;;;;;;14.43;4.90;;;;;;;20.71;55.29;102649.13;10544562;28;20039;-72
2022/05/09 07:26:40;;;;;;;7.25;4.68;;;;;;;20.97;47.10;102651.72;10524918;28;20421;-71
2022/05/09 07:31:40;;;;;;;4.57;3.65;;;;;;;21.09;46.33;102641.66;10544484;28;20070;-72
2022/05/09 07:36:41;;;;;;;12.35;3.97;;;;;;;21.50;48.07;102639.34;10527487;28;20464;-72
2022/05/09 07:41:42;;;;;;;6.88;4.13;;;;;;;22.02;45.19;102635.16;10526337;28;20073;-71
2022/05/09 07:46:43;;;;;;;12.13;5.60;;;;;;;22.15;42.41;102642.41;10543560;28;20200;-73
2022/05/09 07:51:43;;;;;;;14.90;6.43;;;;;;;21.90;42.45;102637.00;10542855;28;20043;-72
2022/05/09 07:56:44;;;;;;;8.35;4.53;;;;;;;22.60;49.20;102621.84;10543532;28;20039;-73
2022/05/09 08:01:44;;;;;;;13.32;5.45;;;;;;;23.09;46.16;102628.06;10525166;28;20056;-71
2022/05/09 08:06:45;;;;;;;13.32;4.60;;;;;;;23.40;44.06;102629.63;10543293;28;20035;-72
2022/05/09 08:11:46;;;;;;;6.03;4.47;;;;;;;23.59;43.92;102617.31;10543256;28;20024;-71
2022/05/09 08:16:46;;;;;;;11.38;4.75;;;;;;;23.78;44.35;102619.97;10538036;28;20028;-72
2022/05/09 08:21:49;;;;;;;6.28;3.92;;;;;;;24.30;40.47;102617.13;10543205;28;20059;-72
2022/05/09 08:26:50;;;;;;;8.10;5.70;;;;;;;24.41;39.42;102612.59;10524300;28;20111;-72
2022/05/09 08:31:50;;;;;;;11.77;4.50;;;;;;;24.92;41.54;102607.97;10542209;28;20111;-72
2022/05/09 08:36:53;;;;;;;9.55;4.22;;;;;;;25.03;37.33;102604.28;10540753;28;20024;-72
2022/05/09 08:41:55;;;;;;;8.82;4.85;;;;;;;25.46;37.25;102613.78;10543404;28;20369;-71
2022/05/09 08:47:17;;;;;;;6.10;3.58;;;;;;;25.94;37.76;102604.75;10540846;28;20391;-73
2022/05/09 08:52:31;;;;;;;8.88;4.60;;;;;;;26.20;41.36;102613.38;10541332;28;20024;-72
2022/05/09 08:57:36;;;;;;;7.10;3.33;;;;;;;26.83;38.81;102599.78;10539095;28;20039;-71
2022/05/09 09:02:41;;;;;;;16.85;4.95;;;;;;;26.71;39.35;102593.56;10523117;28;20020;-72
2022/05/09 09:07:49;;;;;;;17.58;4.65;;;;;;;26.83;33.06;102594.22;10523294;28;20035;-71
2022/05/09 09:13:02;;;;;;;6.13;4.13;;;;;;;27.07;37.66;102578.84;10541068;28;20023;-71
2022/05/09 09:18:20;;;;;;;3.83;2.83;;;;;;;26.90;30.60;102569.84;10540394;28;20028;-71
2022/05/09 09:23:44;;;;;;;6.05;2.95;;;;;;;26.96;31.24;102571.53;10540991;28;20325;-71
2022/05/09 09:28:47;;;;;;;7.43;3.42;;;;;;;26.34;33.13;102559.06;10523018;28;20036;-71
2022/05/09 09:33:51;;;;;;;3.47;2.67;;;;;;;26.37;30.86;102558.53;10505892;28;20089;-71
2022/05/09 09:38:58;;;;;;;4.53;3.05;;;;;;;26.50;27.71;102556.44;10506821;28;20020;-71
2022/05/09 09:44:01;;;;;;;;;;;;;;;27.09;35.01;102548.84;10523029;28;20187;-70
2022/05/09 09:49:09;;;;;;;3.13;2.85;;;;;;;27.32;27.26;102544.81;10541833;28;20002;-71
2022/05/09 09:54:09;;;;;;;3.03;2.72;;;;;;;27.57;30.17;102538.50;10540611;28;20146;-71
2022/05/09 09:59:13;;;;;;;9.52;3.10;;;;;;;27.56;30.24;102547.94;10522580;28;20463;-70
2022/05/09 10:04:25;;;;;;;3.22;3.03;;;;;;;27.72;29.98;102522.97;10539458;28;20024;-70
2022/05/09 10:09:27;;;;;;;2.92;2.58;;;;;;;27.51;27.74;102524.84;10524021;28;20027;-71
2022/05/09 10:14:35;;;;;;;4.70;3.35;;;;;;;27.52;28.53;102530.13;10487725;28;20067;-70
2022/05/09 10:19:37;;;;;;;12.07;3.13;;;;;;;27.30;26.24;102529.50;10520199;28;20379;-71
2022/05/09 10:24:48;;;;;;;7.07;3.45;;;;;;;27.34;26.56;102516.69;10537288;28;20035;-71
2022/05/09 10:29:50;;;;;;;6.68;3.65;;;;;;;27.87;29.26;102514.69;10522271;28;20036;-71
2022/05/09 10:34:58;;;;;;;11.18;3.70;;;;;;;27.83;27.77;102504.38;10488321;28;20028;-71
2022/05/09 10:40:23;;;;;;;6.50;3.45;;;;;;;28.32;25.07;102501.91;10522546;28;20032;-71
2022/05/09 10:45:26;;;;;;;3.15;2.85;;;;;;;27.91;25.04;102499.09;10538371;28;20060;-71
2022/05/09 10:50:59;;;;;;;5.47;3.00;;;;;;;27.56;28.35;102503.44;10503156;28;20474;-70
2022/05/09 10:56:17;;;;;;;8.80;2.72;;;;;;;28.55;29.27;102497.75;10491169;28;20039;-71
2022/05/09 11:01:38;;;;;;;4.68;3.42;;;;;;;29.06;31.03;102496.81;10540163;28;20486;-71
2022/05/09 11:07:17;;;;;;;2.28;2.13;;;;;;;29.72;31.04;102488.16;10527712;28;20027;-71
2022/05/09 11:12:39;;;;;;;10.48;3.30;;;;;;;30.31;30.48;102486.34;10544689;28;20150;-71
2022/05/09 11:17:49;;;;;;;7.10;3.65;;;;;;;30.55;30.41;102469.63;10544644;28;20055;-71
2022/05/09 11:22:55;;;;;;;18.75;3.90;;;;;;;30.59;30.71;102462.31;10544612;28;20359;-71
2022/05/09 11:28:19;;;;;;;5.05;3.05;;;;;;;31.01;26.83;102463.53;10525941;28;20082;-71
2022/05/09 11:33:46;;;;;;;3.70;3.38;;;;;;;30.67;30.21;102447.69;10525891;28;20406;-72
2022/05/09 11:38:51;;;;;;;9.00;4.22;;;;;;;30.22;25.34;102449.00;10512238;28;20451;-70
2022/05/09 11:44:04;;;;;;;3.53;3.22;;;;;;;30.00;26.35;102439.09;10545286;28;20067;-72
2022/05/09 11:49:26;;;;;;;16.08;3.53;;;;;;;30.34;29.55;102427.06;10546521;28;20059;-71
2022/05/09 11:54:34;;;;;;;4.90;3.63;;;;;;;30.17;26.34;102435.03;10547283;28;20399;-71
2022/05/09 11:59:35;;;;;;;15.82;4.40;;;;;;;30.58;30.57;102413.94;10545828;28;20142;-71
2022/05/09 12:04:42;;;;;;;8.98;3.60;;;;;;;30.81;27.60;102414.28;10544198;28;20028;-71
2022/05/09 12:10:01;;;;;;;5.68;3.72;;;;;;;29.65;23.82;102412.28;10543830;28;20032;-71
2022/05/09 12:15:03;;;;;;;6.90;4.05;;;;;;;29.11;29.18;102396.41;10542467;28;20379;-71
2022/05/09 12:20:27;;;;;;;5.00;3.28;;;;;;;29.74;28.66;102385.41;10508524;28;20028;-70
2022/05/09 12:25:34;;;;;;;11.63;3.22;;;;;;;29.94;30.08;102381.59;10541258;28;20122;-71
2022/05/09 12:30:41;;;;;;;11.43;3.63;;;;;;;29.95;29.06;102371.25;10542353;28;20118;-70
2022/05/09 12:35:42;;;;;;;6.93;3.28;;;;;;;30.20;28.24;102370.22;10542313;28;20099;-71
2022/05/09 12:40:42;;;;;;;7.15;3.03;;;;;;;29.55;28.25;102378.84;10541557;28;20428;-70
2022/05/09 12:45:43;;;;;;;4.00;3.28;;;;;;;29.23;29.22;102379.28;10540472;28;20078;-70
2022/05/09 12:50:45;;;;;;;3.63;3.30;;;;;;;29.97;30.03;102371.81;10541563;28;20036;-70
2022/05/09 12:55:57;;;;;;;8.05;3.17;;;;;;;29.33;28.65;102373.69;10523331;28;20371;-71
2022/05/09 13:01:02;;;;;;;3.42;2.55;;;;;;;29.05;24.72;102362.09;10525119;28;20024;-70
2022/05/09 13:06:13;;;;;;;6.63;2.60;;;;;;;29.16;27.63;102351.72;10539143;28;20365;-71
2022/05/09 13:11:16;;;;;;;7.00;2.67;;;;;;;29.51;27.95;102345.06;10541723;28;20027;-71
2022/05/09 13:16:31;;;;;;;7.55;3.83;;;;;;;29.40;28.76;102346.28;10523834;28;20080;-72
2022/05/09 13:21:34;;;;;;;3.33;3.08;;;;;;;29.23;25.86;102327.16;10540070;28;20023;-71
2022/05/09 13:26:38;;;;;;;4.53;3.03;;;;;;;29.21;30.69;102337.75;10505429;28;20063;-70
2022/05/09 13:31:43;;;;;;;3.13;2.28;;;;;;;29.33;29.08;102329.03;10506628;28;20394;-70
2022/05/09 13:36:43;;;;;;;2.55;2.35;;;;;;;29.54;29.30;102315.72;10540486;28;20020;-70
2022/05/09 13:41:44;;;;;;;4.27;3.33;;;;;;;29.44;30.50;102317.47;10539381;28;20050;-71
2022/05/09 13:46:47;;;;;;;10.05;5.07;;;;;;;29.35;29.44;102322.00;10520966;28;20732;-70
2022/05/09 13:52:40;;;;;;;11.07;4.65;;;;;;;29.03;30.81;102330.88;10538217;28;20128;-71
2022/05/09 13:57:40;;;;;;;8.73;4.90;;;;;;;28.71;30.37;102331.28;10526318;28;20486;-71
2022/05/09 14:02:41;;;;;;;10.77;4.13;;;;;;;28.25;30.22;102320.28;10487534;28;20035;-71
2022/05/09 14:07:41;;;;;;;7.85;4.53;;;;;;;27.84;30.73;102314.78;10521215;28;20028;-71
2022/05/09 14:12:42;;;;;;;6.00;3.10;;;;;;;27.33;31.22;102321.16;10520375;28;20527;-70
2022/05/09 14:17:46;;;;;;;4.97;3.55;;;;;;;26.89;32.56;102302.09;10537962;28;20191;-69
2022/05/09 14:22:47;;;;;;;4.50;3.58;;;;;;;26.85;32.69;102291.81;10538884;28;20093;-69
2022/05/09 14:33:39;;;;;;;10.57;4.45;;;;;;;26.56;32.42;102272.84;10523435;28;20028;-70
2022/05/09 14:38:40;;;;;;;6.63;3.15;;;;;;;26.35;32.76;102262.69;10528120;28;20103;-70
2022/05/09 14:43:42;;;;;;;3.78;2.60;;;;;;;26.27;33.77;102257.69;10528834;28;20055;-70
2022/05/09 14:48:43;;;;;;;5.82;2.75;;;;;;;26.20;34.94;102252.38;10529368;28;20089;-70
2022/05/09 14:53:49;;;;;;;6.63;3.50;;;;;;;26.26;34.20;102250.44;10545090;28;20517;-70
2022/05/09 14:59:05;;;;;;;10.77;3.28;;;;;;;26.19;33.57;102240.41;10528088;28;20043;-70
2022/05/09 15:04:05;;;;;;;6.28;3.38;;;;;;;26.16;35.01;102229.00;10529715;28;20063;-71
2022/05/09 15:09:06;;;;;;;3.72;2.47;;;;;;;26.05;35.12;102221.75;10546105;28;20059;-71
2022/05/09 15:14:06;;;;;;;3.05;2.72;;;;;;;25.41;33.56;102215.22;10544714;28;20035;-70
2022/05/09 15:19:07;;;;;;;6.63;3.33;;;;;;;25.50;33.54;102216.41;10510671;28;20028;-71
2022/05/09 15:24:08;;;;;;;6.22;2.45;;;;;;;25.43;33.65;102214.94;10545165;28;20378;-70
2022/05/09 15:29:08;;;;;;;4.80;3.67;;;;;;;26.02;34.08;102209.25;10544549;28;20058;-71
2022/05/09 15:34:10;;;;;;;3.58;3.28;;;;;;;25.64;32.88;102196.50;10509821;28;20051;-71
2022/05/09 15:39:11;;;;;;;2.88;2.67;;;;;;;24.97;33.50;102189.56;10527377;28;20165;-71
2022/05/09 15:44:13;;;;;;;3.15;2.85;;;;;;;24.59;33.42;102185.88;10544818;28;20047;-71
2022/05/09 15:49:27;;;;;;;13.43;3.38;;;;;;;24.41;34.71;102183.41;10542374;28;20032;-71
2022/05/09 15:54:28;;;;;;;11.98;3.78;;;;;;;24.10;34.57;102183.91;10511245;28;20024;-71
2022/05/09 15:59:29;;;;;;;3.42;3.00;;;;;;;23.84;34.36;102187.41;10543683;28;20080;-71
2022/05/09 16:04:30;;;;;;;4.63;3.30;;;;;;;23.58;35.15;102180.63;10525615;28;20048;-71
2022/05/09 16:14:50;;;;;;;6.30;3.22;;;;;;;23.34;36.12;102160.66;10542529;28;20139;-71
2022/05/09 16:19:58;;;;;;;2.88;2.17;;;;;;;22.94;37.04;102161.63;10542635;28;20099;-71
2022/05/09 16:25:03;;;;;;;7.72;3.17;;;;;;;22.50;37.91;102161.38;10524643;28;20106;-72
2022/05/09 16:30:07;;;;;;;3.27;2.30;;;;;;;22.17;39.03;102157.41;10525792;28;20027;-70
2022/05/09 16:35:08;;;;;;;9.82;3.20;;;;;;;21.95;39.10;102159.09;10541353;28;20047;-70
2022/05/09 16:40:10;;;;;;;7.53;2.60;;;;;;;21.57;40.49;102144.81;10542161;28;20047;-71
2022/05/09 16:45:13;;;;;;;4.15;2.15;;;;;;;21.31;42.13;102146.09;10539740;28;20048;-70
2022/05/09 16:50:18;;;;;;;6.57;3.08;;;;;;;21.07;43.04;102147.13;10542413;28;20119;-71
2022/05/09 16:55:20;;;;;;;3.38;3.08;;;;;;;20.88;43.63;102138.97;10539990;28;20020;-70
2022/05/09 17:00:22;;;;;;;2.55;2.35;;;;;;;20.97;42.55;102116.59;10538839;28;20511;-71
2022/05/09 17:05:23;;;;;;;14.82;4.32;;;;;;;21.05;42.33;102117.06;10540816;28;20036;-70
2022/05/09 17:10:23;;;;;;;4.15;3.00;;;;;;;21.01;43.33;102109.53;10539320;28;20119;-70
2022/05/09 17:15:32;;;;;;;5.45;2.70;;;;;;;20.90;43.11;102111.22;10539295;28;20039;-70
2022/05/09 17:20:33;;;;;;;4.68;2.70;;;;;;;20.81;43.09;102110.69;10541137;28;20028;-70
2022/05/09 17:25:40;;;;;;;14.25;3.55;;;;;;;20.83;42.94;102103.03;10539092;28;20371;-71
2022/05/09 17:30:41;;;;;;;6.93;2.72;;;;;;;20.81;43.05;102098.84;10505593;28;20038;-71
2022/05/09 17:41:05;;;;;;;5.13;1.92;;;;;;;20.77;42.78;102089.38;10538272;28;20036;-70
2022/05/09 17:46:05;;;;;;;9.27;3.40;;;;;;;20.79;42.52;102092.75;10505476;28;20129;-71
2022/05/09 17:51:05;;;;;;;3.92;3.15;;;;;;;20.73;42.64;102096.44;10522770;28;20075;-70
2022/05/09 17:56:06;;;;;;;7.07;3.45;;;;;;;20.62;42.89;102101.69;10539899;28;20020;-71
2022/05/09 18:01:09;;;;;;;5.93;5.00;;;;;;;20.53;42.55;102092.09;10522295;28;20063;-71
2022/05/09 18:06:10;;;;;;;11.88;4.45;;;;;;;20.50;42.87;102097.19;10539333;28;20036;-71
2022/05/09 18:11:10;;;;;;;7.32;4.30;;;;;;;20.42;42.70;102106.59;10542354;28;20024;-71
2022/05/09 18:16:12;;;;;;;9.38;4.45;;;;;;;20.26;43.12;102121.00;10548712;28;20050;-71
2022/05/09 18:21:14;;;;;;;7.72;3.80;;;;;;;20.14;42.96;102131.97;10513338;28;20027;-71
2022/05/09 18:26:14;;;;;;;9.35;3.63;;;;;;;19.96;43.48;102130.91;10529750;28;20115;-71
2022/05/09 18:31:15;;;;;;;6.47;4.68;;;;;;;19.80;43.44;102127.94;10547466;28;20055;-72
2022/05/09 18:36:17;;;;;;;17.20;5.45;;;;;;;19.63;43.55;102136.75;10529231;28;20020;-71
2022/05/09 18:41:21;;;;;;;11.82;4.47;;;;;;;19.44;43.78;102124.06;10529570;28;20197;-71
2022/05/09 18:46:22;;;;;;;15.05;6.15;;;;;;;19.28;43.69;102128.25;10528614;28;20123;-71
2022/05/09 18:56:41;;;;;;;10.23;3.15;;;;;;;18.77;43.81;102132.88;10530404;28;20027;-72
2022/05/09 19:01:42;;;;;;;3.17;2.80;;;;;;;18.51;44.40;102133.88;10546141;28;20032;-70
2022/05/09 19:06:43;;;;;;;3.42;2.53;;;;;;;18.29;44.12;102140.75;10529073;28;20024;-71
2022/05/09 19:11:45;;;;;;;4.78;2.60;;;;;;;18.05;44.00;102131.34;10527753;28;20031;-72
2022/05/09 19:16:45;;;;;;;7.97;2.53;;;;;;;17.82;44.19;102121.75;10494472;28;20347;-71
2022/05/09 19:21:46;;;;;;;5.85;2.83;;;;;;;17.63;44.03;102114.41;10525616;28;20032;-71
2022/05/09 19:26:46;;;;;;;8.55;2.75;;;;;;;17.48;43.92;102111.91;10545506;28;20470;-71
2022/05/09 19:31:47;;;;;;;6.53;2.72;;;;;;;17.36;43.86;102119.94;10527845;28;20055;-71
2022/05/09 19:36:47;;;;;;;3.42;3.13;;;;;;;17.24;43.96;102137.22;10510032;28;20115;-72
2022/05/09 19:41:48;;;;;;;15.10;3.72;;;;;;;17.09;44.17;102126.47;10509675;28;20036;-70
2022/05/09 19:46:52;;;;;;;6.68;3.55;;;;;;;17.05;44.19;102123.31;10490251;28;20112;-71
2022/05/09 19:57:12;;;;;;;4.78;3.83;;;;;;;16.80;44.42;102127.75;10501239;28;20189;-71
2022/05/09 20:02:18;;;;;;;6.13;2.72;;;;;;;16.74;44.91;102134.84;10485051;28;20119;-72
2022/05/09 20:07:19;;;;;;;9.93;5.88;;;;;;;16.65;44.48;102133.34;10484775;28;20032;-71
2022/05/09 20:12:24;;;;;;;3.97;3.08;;;;;;;16.56;45.00;102126.38;10484015;28;20056;-71
2022/05/09 20:17:24;;;;;;;7.05;3.85;;;;;;;16.48;45.11;102122.81;10467496;28;20475;-72
2022/05/09 20:22:30;;;;;;;2.97;2.42;;;;;;;16.39;45.91;102126.78;10482708;28;20036;-71
2022/05/09 20:32:49;;;;;;;9.05;3.35;;;;;;;16.23;47.10;102111.59;10500049;28;20036;-71
2022/05/09 20:37:56;;;;;;;5.30;3.33;;;;;;;16.18;47.39;102116.00;10500586;28;20064;-70
2022/05/09 20:42:57;;;;;;;4.85;3.20;;;;;;;16.12;47.03;102103.16;10503743;28;20039;-71
2022/05/09 20:47:58;;;;;;;7.72;4.18;;;;;;;16.06;47.62;102107.56;10541299;28;20119;-70
2022/05/09 20:52:58;;;;;;;16.13;4.15;;;;;;;16.05;47.24;102111.34;10523348;28;20119;-70
2022/05/09 20:58:01;;;;;;;7.97;4.25;;;;;;;16.05;47.69;102114.06;10540700;28;20044;-70
2022/05/09 21:03:01;;;;;;;5.68;3.83;;;;;;;16.05;48.09;102111.34;10541105;28;20459;-71
2022/05/09 21:08:08;;;;;;;12.93;5.40;;;;;;;16.07;48.01;102113.84;10540581;28;20032;-71
2022/05/09 21:13:09;;;;;;;;;;;;;;;16.05;48.25;102103.16;10540594;28;20134;-69
2022/05/09 21:18:09;;;;;;;11.27;3.85;;;;;;;15.99;49.51;102109.41;10523357;28;19916;-71
2022/05/09 21:23:10;;;;;;;5.68;3.90;;;;;;;15.94;48.94;102107.28;10522283;28;20037;-70
2022/05/09 21:28:22;;;;;;;9.23;4.03;;;;;;;15.81;49.13;102104.50;10521794;28;20051;-71
2022/05/09 21:33:24;;;;;;;8.20;3.90;;;;;;;15.71;49.33;102096.69;10522113;28;20439;-70
2022/05/09 21:43:49;;;;;;;6.85;4.80;;;;;;;15.35;50.18;102080.50;10524204;28;20052;-71
2022/05/09 21:48:49;;;;;;;6.55;4.32;;;;;;;15.17;49.83;102085.59;10522476;28;20060;-71
2022/05/09 21:53:50;;;;;;;8.57;4.93;;;;;;;15.00;50.02;102077.72;10539734;28;20115;-71
2022/05/09 21:58:50;;;;;;;16.17;5.72;;;;;;;14.81;51.45;102060.16;10539269;28;20063;-70
2022/05/09 22:03:51;;;;;;;17.38;4.53;;;;;;;14.80;51.50;102063.91;10538702;28;20040;-71
2022/05/09 22:08:51;;;;;;;5.80;4.22;;;;;;;14.68;51.94;102056.47;10538560;28;20036;-72
2022/05/09 22:13:51;;;;;;;11.07;5.05;;;;;;;14.59;52.01;102062.06;10520998;28;20032;-71
2022/05/09 22:18:52;;;;;;;13.13;5.15;;;;;;;14.55;52.07;102052.59;10521656;28;20074;-70
2022/05/09 22:23:52;;;;;;;5.82;3.92;;;;;;;14.47;52.08;102049.97;10537579;28;20118;-70
2022/05/09 22:29:27;;;;;;;10.45;4.32;;;;;;;14.40;52.00;102057.25;10521710;28;20036;-70
2022/05/09 22:34:13;;;;;;;11.05;4.05;;;;;;;14.34;52.61;102047.13;10522908;28;20032;-71
2022/05/09 22:39:13;;;;;;;5.10;4.57;;;;;;;14.25;52.54;102029.19;10537898;28;20428;-71
2022/05/09 22:44:14;;;;;;;5.85;4.75;;;;;;;14.24;53.36;102030.25;10520570;28;20070;-70
2022/05/09 22:49:27;;;;;;;9.75;4.15;;;;;;;14.11;53.14;102014.63;10537921;28;20123;-70
2022/05/09 22:54:28;;;;;;;7.20;4.70;;;;;;;14.05;53.10;102015.38;10504912;28;20448;-70
2022/05/09 22:59:29;;;;;;;8.75;3.72;;;;;;;13.98;52.93;102009.03;10545688;28;20044;-70
2022/05/09 23:04:29;;;;;;;9.40;5.88;;;;;;;14.04;53.25;102009.09;10527976;28;20369;-70
2022/05/09 23:09:30;;;;;;;9.43;6.25;;;;;;;14.17;54.64;102014.69;10527683;28;20039;-70
2022/05/09 23:14:34;;;;;;;11.65;4.97;;;;;;;14.26;54.30;102018.09;10528306;28;20032;-70
2022/05/09 23:19:34;;;;;;;13.88;5.95;;;;;;;14.33;54.56;102012.75;10527499;28;20089;-71
2022/05/09 23:24:35;;;;;;;12.50;5.30;;;;;;;14.41;54.71;102002.53;10543801;28;20024;-71
2022/05/09 23:29:35;;;;;;;5.90;4.45;;;;;;;14.42;54.05;101993.34;10544759;28;20055;-70
2022/05/09 23:34:36;;;;;;;8.57;5.85;;;;;;;14.59;56.26;101977.56;10544092;28;20024;-70
2022/05/09 23:39:36;;;;;;;9.25;5.78;;;;;;;14.64;54.39;101971.50;10526954;28;20031;-70
2022/05/09 23:44:36;;;;;;;8.02;6.00;;;;;;;14.60;54.69;101967.50;10544272;28;20055;-70
2022/05/09 23:49:37;;;;;;;8.63;4.80;;;;;;;14.59;55.11;101963.09;10525384;28;20028;-70
2022/05/09 23:54:37;;;;;;;11.70;5.13;;;;;;;14.53;55.65;101964.72;10543863;28;20109;-70
2022/05/09 23:59:37;;;;;;;10.85;6.93;;;;;;;14.51;56.67;101955.88;10508901;28;20068;-71
